sensor_id;sensor_type;location;lat;lon;timestamp;P1;durP1;ratioP1;P2;durP2;ratioP2
76155;SDS011;64906;51.290;7.348;2023-03-24T00:02:01;16.27;;;11.30;;
76155;SDS011;64906;51.290;7.348;2023-03-24T00:04:27;15.75;;;11.98;;
76155;SDS011;64906;51.290;7.348;2023-03-24T00:06:52;15.73;;;10.93;;
76155;SDS011;64906;51.290;7.348;2023-03-24T00:09:18;16.73;;;11.85;;
76155;SDS011;64906;51.290;7.348;2023-03-24T00:11:43;14.68;;;11.00;;
76155;SDS011;64906;51.290;7.348;2023-03-24T00:14:09;14.80;;;10.57;;
76155;SDS011;64906;51.290;7.348;2023-03-24T00:16:38;15.07;;;10.60;;
76155;SDS011;64906;51.290;7.348;2023-03-24T00:19:07;15.40;;;11.20;;
76155;SDS011;64906;51.290;7.348;2023-03-24T00:21:34;15.70;;;11.18;;
76155;SDS011;64906;51.290;7.348;2023-03-24T00:24:01;15.68;;;10.93;;
76155;SDS011;64906;51.290;7.348;2023-03-24T00:26:28;16.02;;;11.05;;
76155;SDS011;64906;51.290;7.348;2023-03-24T00:28:54;15.60;;;11.23;;
76155;SDS011;64906;51.290;7.348;2023-03-24T00:31:21;15.15;;;10.93;;
76155;SDS011;64906;51.290;7.348;2023-03-24T00:33:48;13.95;;;10.98;;
76155;SDS011;64906;51.290;7.348;2023-03-24T00:36:15;14.40;;;10.57;;
76155;SDS011;64906;51.290;7.348;2023-03-24T00:38:42;14.27;;;10.70;;
76155;SDS011;64906;51.290;7.348;2023-03-24T00:41:08;13.95;;;10.07;;
76155;SDS011;64906;51.290;7.348;2023-03-24T00:43:34;15.07;;;10.88;;
76155;SDS011;64906;51.290;7.348;2023-03-24T00:46:02;14.90;;;10.93;;
76155;SDS011;64906;51.290;7.348;2023-03-24T00:48:29;13.77;;;10.40;;
76155;SDS011;64906;51.290;7.348;2023-03-24T00:50:55;14.48;;;10.73;;
76155;SDS011;64906;51.290;7.348;2023-03-24T00:53:21;15.27;;;10.75;;
76155;SDS011;64906;51.290;7.348;2023-03-24T00:55:49;15.00;;;10.43;;
76155;SDS011;64906;51.290;7.348;2023-03-24T00:58:15;12.97;;;9.77;;
76155;SDS011;64906;51.290;7.348;2023-03-24T01:00:44;14.38;;;10.07;;
76155;SDS011;64906;51.290;7.348;2023-03-24T01:03:10;13.80;;;10.30;;
76155;SDS011;64906;51.290;7.348;2023-03-24T01:05:36;13.68;;;9.95;;
76155;SDS011;64906;51.290;7.348;2023-03-24T01:08:01;14.73;;;10.53;;
76155;SDS011;64906;51.290;7.348;2023-03-24T01:10:28;15.00;;;11.10;;
76155;SDS011;64906;51.290;7.348;2023-03-24T01:12:57;13.77;;;9.80;;
76155;SDS011;64906;51.290;7.348;2023-03-24T01:15:25;14.15;;;10.18;;
76155;SDS011;64906;51.290;7.348;2023-03-24T01:17:53;13.88;;;10.02;;
76155;SDS011;64906;51.290;7.348;2023-03-24T01:20:19;13.07;;;9.88;;
76155;SDS011;64906;51.290;7.348;2023-03-24T01:22:46;14.00;;;10.65;;
76155;SDS011;64906;51.290;7.348;2023-03-24T01:25:13;13.93;;;10.00;;
76155;SDS011;64906;51.290;7.348;2023-03-24T01:27:42;13.50;;;9.73;;
76155;SDS011;64906;51.290;7.348;2023-03-24T01:30:10;13.35;;;9.93;;
76155;SDS011;64906;51.290;7.348;2023-03-24T01:32:40;13.32;;;8.45;;
76155;SDS011;64906;51.290;7.348;2023-03-24T01:35:06;13.68;;;9.50;;
76155;SDS011;64906;51.290;7.348;2023-03-24T01:37:32;14.15;;;10.20;;
76155;SDS011;64906;51.290;7.348;2023-03-24T01:39:57;12.95;;;9.70;;
76155;SDS011;64906;51.290;7.348;2023-03-24T01:42:23;14.60;;;10.07;;
76155;SDS011;64906;51.290;7.348;2023-03-24T01:44:52;12.40;;;8.98;;
76155;SDS011;64906;51.290;7.348;2023-03-24T01:47:21;12.38;;;9.23;;
76155;SDS011;64906;51.290;7.348;2023-03-24T01:49:48;13.20;;;9.53;;
76155;SDS011;64906;51.290;7.348;2023-03-24T01:52:24;12.68;;;9.13;;
76155;SDS011;64906;51.290;7.348;2023-03-24T01:55:04;13.13;;;9.18;;
76155;SDS011;64906;51.290;7.348;2023-03-24T01:57:34;12.38;;;9.15;;
76155;SDS011;64906;51.290;7.348;2023-03-24T02:00:06;12.65;;;9.55;;
76155;SDS011;64906;51.290;7.348;2023-03-24T02:02:34;13.00;;;8.95;;
76155;SDS011;64906;51.290;7.348;2023-03-24T02:05:05;13.68;;;9.65;;
76155;SDS011;64906;51.290;7.348;2023-03-24T02:10:02;12.52;;;8.25;;
76155;SDS011;64906;51.290;7.348;2023-03-24T02:12:30;13.48;;;9.05;;
76155;SDS011;64906;51.290;7.348;2023-03-24T02:14:56;13.15;;;9.25;;
76155;SDS011;64906;51.290;7.348;2023-03-24T02:17:36;11.85;;;8.60;;
76155;SDS011;64906;51.290;7.348;2023-03-24T02:37:40;11.93;;;8.77;;
76155;SDS011;64906;51.290;7.348;2023-03-24T02:40:33;12.15;;;8.43;;
76155;SDS011;64906;51.290;7.348;2023-03-24T02:43:04;12.88;;;9.05;;
76155;SDS011;64906;51.290;7.348;2023-03-24T02:48:18;12.93;;;8.73;;
76155;SDS011;64906;51.290;7.348;2023-03-24T02:53:23;12.30;;;8.85;;
76155;SDS011;64906;51.290;7.348;2023-03-24T02:56:12;11.70;;;8.07;;
76155;SDS011;64906;51.290;7.348;2023-03-24T02:58:46;11.13;;;7.88;;
76155;SDS011;64906;51.290;7.348;2023-03-24T03:01:26;13.27;;;8.80;;
76155;SDS011;64906;51.290;7.348;2023-03-24T03:03:57;12.05;;;8.73;;
76155;SDS011;64906;51.290;7.348;2023-03-24T03:06:33;11.38;;;7.72;;
76155;SDS011;64906;51.290;7.348;2023-03-24T03:09:03;12.07;;;7.85;;
76155;SDS011;64906;51.290;7.348;2023-03-24T03:11:32;11.60;;;8.20;;
76155;SDS011;64906;51.290;7.348;2023-03-24T03:14:14;10.63;;;7.78;;
76155;SDS011;64906;51.290;7.348;2023-03-24T03:17:04;13.13;;;8.48;;
76155;SDS011;64906;51.290;7.348;2023-03-24T03:19:42;10.75;;;7.55;;
76155;SDS011;64906;51.290;7.348;2023-03-24T03:22:14;11.10;;;7.85;;
76155;SDS011;64906;51.290;7.348;2023-03-24T03:24:44;10.73;;;8.00;;
76155;SDS011;64906;51.290;7.348;2023-03-24T03:27:21;12.00;;;8.52;;
76155;SDS011;64906;51.290;7.348;2023-03-24T03:29:53;10.70;;;7.65;;
76155;SDS011;64906;51.290;7.348;2023-03-24T03:32:28;11.48;;;8.10;;
76155;SDS011;64906;51.290;7.348;2023-03-24T03:35:05;9.95;;;7.15;;
76155;SDS011;64906;51.290;7.348;2023-03-24T03:37:44;10.60;;;7.03;;
76155;SDS011;64906;51.290;7.348;2023-03-24T03:40:12;11.20;;;7.93;;
76155;SDS011;64906;51.290;7.348;2023-03-24T03:42:44;11.13;;;7.72;;
76155;SDS011;64906;51.290;7.348;2023-03-24T03:45:10;10.75;;;7.75;;
76155;SDS011;64906;51.290;7.348;2023-03-24T03:47:38;10.20;;;7.38;;
76155;SDS011;64906;51.290;7.348;2023-03-24T03:50:04;11.38;;;7.93;;
76155;SDS011;64906;51.290;7.348;2023-03-24T03:52:32;10.25;;;7.18;;
76155;SDS011;64906;51.290;7.348;2023-03-24T03:54:58;11.35;;;7.40;;
76155;SDS011;64906;51.290;7.348;2023-03-24T03:57:24;10.85;;;7.55;;
76155;SDS011;64906;51.290;7.348;2023-03-24T03:59:51;10.25;;;7.25;;
76155;SDS011;64906;51.290;7.348;2023-03-24T04:05:22;10.45;;;7.35;;
76155;SDS011;64906;51.290;7.348;2023-03-24T04:19:11;10.38;;;7.38;;
76155;SDS011;64906;51.290;7.348;2023-03-24T04:27:24;9.75;;;6.72;;
76155;SDS011;64906;51.290;7.348;2023-03-24T04:30:15;9.23;;;6.32;;
76155;SDS011;64906;51.290;7.348;2023-03-24T04:32:57;10.10;;;6.90;;
76155;SDS011;64906;51.290;7.348;2023-03-24T04:35:25;9.60;;;6.93;;
76155;SDS011;64906;51.290;7.348;2023-03-24T04:38:08;10.13;;;6.88;;
76155;SDS011;64906;51.290;7.348;2023-03-24T04:40:38;9.63;;;6.82;;
76155;SDS011;64906;51.290;7.348;2023-03-24T04:43:06;10.48;;;6.53;;
76155;SDS011;64906;51.290;7.348;2023-03-24T04:45:37;10.18;;;7.05;;
76155;SDS011;64906;51.290;7.348;2023-03-24T04:48:04;10.05;;;6.90;;
76155;SDS011;64906;51.290;7.348;2023-03-24T04:50:41;9.43;;;6.70;;
76155;SDS011;64906;51.290;7.348;2023-03-24T04:53:07;9.75;;;7.07;;
76155;SDS011;64906;51.290;7.348;2023-03-24T04:55:50;10.48;;;7.10;;
76155;SDS011;64906;51.290;7.348;2023-03-24T04:58:21;9.07;;;6.47;;
76155;SDS011;64906;51.290;7.348;2023-03-24T05:00:47;9.57;;;6.60;;
76155;SDS011;64906;51.290;7.348;2023-03-24T05:03:13;9.48;;;6.85;;
76155;SDS011;64906;51.290;7.348;2023-03-24T05:05:43;9.90;;;6.75;;
76155;SDS011;64906;51.290;7.348;2023-03-24T05:08:09;9.88;;;6.53;;
76155;SDS011;64906;51.290;7.348;2023-03-24T05:10:35;9.48;;;6.28;;
76155;SDS011;64906;51.290;7.348;2023-03-24T05:13:01;9.38;;;6.38;;
76155;SDS011;64906;51.290;7.348;2023-03-24T05:15:27;9.15;;;5.60;;
76155;SDS011;64906;51.290;7.348;2023-03-24T05:17:53;9.38;;;6.07;;
76155;SDS011;64906;51.290;7.348;2023-03-24T05:20:18;8.73;;;6.03;;
76155;SDS011;64906;51.290;7.348;2023-03-24T05:22:44;8.77;;;6.10;;
76155;SDS011;64906;51.290;7.348;2023-03-24T05:25:10;8.23;;;5.30;;
76155;SDS011;64906;51.290;7.348;2023-03-24T05:27:35;9.43;;;6.60;;
76155;SDS011;64906;51.290;7.348;2023-03-24T05:30:02;8.70;;;6.25;;
76155;SDS011;64906;51.290;7.348;2023-03-24T05:32:29;8.55;;;5.70;;
76155;SDS011;64906;51.290;7.348;2023-03-24T05:34:54;8.80;;;6.10;;
76155;SDS011;64906;51.290;7.348;2023-03-24T05:37:19;8.18;;;6.00;;
76155;SDS011;64906;51.290;7.348;2023-03-24T05:39:45;9.20;;;6.10;;
76155;SDS011;64906;51.290;7.348;2023-03-24T05:42:10;9.57;;;6.30;;
76155;SDS011;64906;51.290;7.348;2023-03-24T05:44:36;9.27;;;5.45;;
76155;SDS011;64906;51.290;7.348;2023-03-24T05:47:01;8.77;;;6.20;;
76155;SDS011;64906;51.290;7.348;2023-03-24T05:49:27;8.52;;;5.85;;
76155;SDS011;64906;51.290;7.348;2023-03-24T05:51:52;8.87;;;6.10;;
76155;SDS011;64906;51.290;7.348;2023-03-24T05:54:18;9.05;;;6.20;;
76155;SDS011;64906;51.290;7.348;2023-03-24T05:56:43;8.85;;;6.10;;
76155;SDS011;64906;51.290;7.348;2023-03-24T05:59:09;8.68;;;6.03;;
76155;SDS011;64906;51.290;7.348;2023-03-24T06:01:35;8.93;;;6.28;;
76155;SDS011;64906;51.290;7.348;2023-03-24T06:04:01;8.40;;;5.85;;
76155;SDS011;64906;51.290;7.348;2023-03-24T06:06:26;8.75;;;6.07;;
76155;SDS011;64906;51.290;7.348;2023-03-24T06:08:52;8.80;;;6.13;;
76155;SDS011;64906;51.290;7.348;2023-03-24T06:11:18;7.75;;;5.70;;
76155;SDS011;64906;51.290;7.348;2023-03-24T06:13:44;7.60;;;5.03;;
76155;SDS011;64906;51.290;7.348;2023-03-24T06:16:09;8.80;;;5.55;;
76155;SDS011;64906;51.290;7.348;2023-03-24T06:18:35;8.40;;;5.30;;
76155;SDS011;64906;51.290;7.348;2023-03-24T06:21:00;8.32;;;5.80;;
76155;SDS011;64906;51.290;7.348;2023-03-24T06:23:26;7.27;;;5.10;;
76155;SDS011;64906;51.290;7.348;2023-03-24T06:25:52;8.85;;;5.97;;
76155;SDS011;64906;51.290;7.348;2023-03-24T06:28:19;8.80;;;5.93;;
76155;SDS011;64906;51.290;7.348;2023-03-24T06:30:46;8.30;;;5.57;;
76155;SDS011;64906;51.290;7.348;2023-03-24T06:33:13;8.27;;;5.70;;
76155;SDS011;64906;51.290;7.348;2023-03-24T06:35:38;7.85;;;4.90;;
76155;SDS011;64906;51.290;7.348;2023-03-24T06:38:04;8.82;;;5.70;;
76155;SDS011;64906;51.290;7.348;2023-03-24T06:40:31;6.95;;;4.70;;
76155;SDS011;64906;51.290;7.348;2023-03-24T06:42:57;8.13;;;5.57;;
76155;SDS011;64906;51.290;7.348;2023-03-24T06:45:22;7.63;;;5.07;;
76155;SDS011;64906;51.290;7.348;2023-03-24T06:47:47;7.87;;;5.03;;
76155;SDS011;64906;51.290;7.348;2023-03-24T06:50:13;7.87;;;4.77;;
76155;SDS011;64906;51.290;7.348;2023-03-24T06:52:38;7.32;;;5.35;;
76155;SDS011;64906;51.290;7.348;2023-03-24T06:55:05;7.93;;;5.43;;
76155;SDS011;64906;51.290;7.348;2023-03-24T06:57:32;7.47;;;5.50;;
76155;SDS011;64906;51.290;7.348;2023-03-24T06:59:57;7.20;;;5.25;;
76155;SDS011;64906;51.290;7.348;2023-03-24T07:02:23;7.30;;;4.73;;
76155;SDS011;64906;51.290;7.348;2023-03-24T07:04:48;8.70;;;5.80;;
76155;SDS011;64906;51.290;7.348;2023-03-24T07:07:14;7.82;;;5.25;;
76155;SDS011;64906;51.290;7.348;2023-03-24T07:09:41;8.45;;;5.38;;
76155;SDS011;64906;51.290;7.348;2023-03-24T07:12:07;7.32;;;5.25;;
76155;SDS011;64906;51.290;7.348;2023-03-24T07:14:32;7.00;;;4.78;;
76155;SDS011;64906;51.290;7.348;2023-03-24T07:16:58;7.38;;;4.88;;
76155;SDS011;64906;51.290;7.348;2023-03-24T07:19:23;8.38;;;5.43;;
76155;SDS011;64906;51.290;7.348;2023-03-24T07:21:49;7.25;;;4.93;;
76155;SDS011;64906;51.290;7.348;2023-03-24T07:24:15;7.95;;;4.97;;
76155;SDS011;64906;51.290;7.348;2023-03-24T07:26:41;7.72;;;5.25;;
76155;SDS011;64906;51.290;7.348;2023-03-24T07:29:06;7.25;;;5.00;;
76155;SDS011;64906;51.290;7.348;2023-03-24T07:31:32;8.02;;;5.68;;
76155;SDS011;64906;51.290;7.348;2023-03-24T07:34:05;7.95;;;5.00;;
76155;SDS011;64906;51.290;7.348;2023-03-24T07:36:31;7.40;;;5.22;;
76155;SDS011;64906;51.290;7.348;2023-03-24T07:38:57;6.90;;;4.90;;
76155;SDS011;64906;51.290;7.348;2023-03-24T07:41:22;7.22;;;5.10;;
76155;SDS011;64906;51.290;7.348;2023-03-24T07:43:48;7.72;;;5.10;;
76155;SDS011;64906;51.290;7.348;2023-03-24T07:46:14;7.68;;;4.40;;
76155;SDS011;64906;51.290;7.348;2023-03-24T07:48:40;7.43;;;4.70;;
76155;SDS011;64906;51.290;7.348;2023-03-24T07:51:06;7.45;;;4.80;;
76155;SDS011;64906;51.290;7.348;2023-03-24T07:53:31;7.22;;;4.72;;
76155;SDS011;64906;51.290;7.348;2023-03-24T07:55:57;7.00;;;4.47;;
76155;SDS011;64906;51.290;7.348;2023-03-24T07:58:23;7.38;;;4.68;;
76155;SDS011;64906;51.290;7.348;2023-03-24T08:00:49;6.32;;;4.30;;
76155;SDS011;64906;51.290;7.348;2023-03-24T08:03:14;7.68;;;4.90;;
76155;SDS011;64906;51.290;7.348;2023-03-24T08:05:40;7.65;;;4.97;;
76155;SDS011;64906;51.290;7.348;2023-03-24T08:08:06;6.53;;;4.22;;
76155;SDS011;64906;51.290;7.348;2023-03-24T08:10:32;7.10;;;4.35;;
76155;SDS011;64906;51.290;7.348;2023-03-24T08:12:58;7.13;;;4.63;;
76155;SDS011;64906;51.290;7.348;2023-03-24T08:15:23;6.40;;;4.38;;
76155;SDS011;64906;51.290;7.348;2023-03-24T08:17:50;6.25;;;4.55;;
76155;SDS011;64906;51.290;7.348;2023-03-24T08:20:16;6.80;;;4.60;;
76155;SDS011;64906;51.290;7.348;2023-03-24T08:22:44;6.63;;;4.45;;
76155;SDS011;64906;51.290;7.348;2023-03-24T08:25:13;6.95;;;4.65;;
76155;SDS011;64906;51.290;7.348;2023-03-24T08:27:40;6.63;;;4.63;;
76155;SDS011;64906;51.290;7.348;2023-03-24T08:30:09;6.60;;;4.53;;
76155;SDS011;64906;51.290;7.348;2023-03-24T08:32:42;6.30;;;4.30;;
76155;SDS011;64906;51.290;7.348;2023-03-24T08:35:12;7.45;;;4.90;;
76155;SDS011;64906;51.290;7.348;2023-03-24T08:37:39;6.47;;;4.28;;
76155;SDS011;64906;51.290;7.348;2023-03-24T08:40:08;7.60;;;4.40;;
76155;SDS011;64906;51.290;7.348;2023-03-24T08:42:37;6.53;;;4.30;;
76155;SDS011;64906;51.290;7.348;2023-03-24T08:45:03;6.18;;;3.92;;
76155;SDS011;64906;51.290;7.348;2023-03-24T08:47:28;6.55;;;4.40;;
76155;SDS011;64906;51.290;7.348;2023-03-24T08:49:55;6.70;;;4.28;;
76155;SDS011;64906;51.290;7.348;2023-03-24T08:52:24;6.97;;;4.68;;
76155;SDS011;64906;51.290;7.348;2023-03-24T08:54:50;7.15;;;4.65;;
76155;SDS011;64906;51.290;7.348;2023-03-24T08:57:16;6.65;;;4.32;;
76155;SDS011;64906;51.290;7.348;2023-03-24T08:59:41;6.05;;;3.72;;
76155;SDS011;64906;51.290;7.348;2023-03-24T09:02:10;7.03;;;4.40;;
76155;SDS011;64906;51.290;7.348;2023-03-24T09:04:37;6.28;;;4.10;;
76155;SDS011;64906;51.290;7.348;2023-03-24T09:07:02;6.53;;;4.07;;
76155;SDS011;64906;51.290;7.348;2023-03-24T09:09:29;6.88;;;4.07;;
76155;SDS011;64906;51.290;7.348;2023-03-24T09:11:54;6.70;;;4.43;;
76155;SDS011;64906;51.290;7.348;2023-03-24T09:14:20;6.55;;;4.28;;
76155;SDS011;64906;51.290;7.348;2023-03-24T09:16:48;5.72;;;3.60;;
76155;SDS011;64906;51.290;7.348;2023-03-24T09:19:17;5.90;;;4.00;;
76155;SDS011;64906;51.290;7.348;2023-03-24T09:21:46;6.93;;;4.50;;
76155;SDS011;64906;51.290;7.348;2023-03-24T09:24:12;5.90;;;3.72;;
76155;SDS011;64906;51.290;7.348;2023-03-24T09:26:38;6.03;;;4.05;;
76155;SDS011;64906;51.290;7.348;2023-03-24T09:29:03;6.32;;;4.20;;
76155;SDS011;64906;51.290;7.348;2023-03-24T09:31:29;5.97;;;3.35;;
76155;SDS011;64906;51.290;7.348;2023-03-24T09:33:54;8.02;;;5.40;;
76155;SDS011;64906;51.290;7.348;2023-03-24T09:36:20;22.13;;;14.10;;
76155;SDS011;64906;51.290;7.348;2023-03-24T09:38:45;31.23;;;17.20;;
76155;SDS011;64906;51.290;7.348;2023-03-24T09:41:18;33.03;;;21.92;;
76155;SDS011;64906;51.290;7.348;2023-03-24T09:46:42;48.58;;;37.45;;
76155;SDS011;64906;51.290;7.348;2023-03-24T09:49:14;58.78;;;42.97;;
76155;SDS011;64906;51.290;7.348;2023-03-24T09:51:46;67.78;;;49.03;;
76155;SDS011;64906;51.290;7.348;2023-03-24T09:54:37;68.57;;;49.75;;
76155;SDS011;64906;51.290;7.348;2023-03-24T09:57:07;70.13;;;51.50;;
76155;SDS011;64906;51.290;7.348;2023-03-24T09:59:41;71.57;;;54.85;;
76155;SDS011;64906;51.290;7.348;2023-03-24T10:02:13;80.30;;;62.10;;
76155;SDS011;64906;51.290;7.348;2023-03-24T10:04:40;84.90;;;66.22;;
76155;SDS011;64906;51.290;7.348;2023-03-24T10:13:19;98.80;;;74.47;;
76155;SDS011;64906;51.290;7.348;2023-03-24T10:15:58;102.78;;;78.47;;
76155;SDS011;64906;51.290;7.348;2023-03-24T10:18:35;99.60;;;75.35;;
76155;SDS011;64906;51.290;7.348;2023-03-24T10:21:16;102.38;;;80.07;;
76155;SDS011;64906;51.290;7.348;2023-03-24T10:24:00;104.75;;;76.68;;
76155;SDS011;64906;51.290;7.348;2023-03-24T10:26:38;106.05;;;80.47;;
76155;SDS011;64906;51.290;7.348;2023-03-24T10:29:26;104.82;;;80.40;;
76155;SDS011;64906;51.290;7.348;2023-03-24T10:31:59;106.97;;;82.40;;
76155;SDS011;64906;51.290;7.348;2023-03-24T10:34:30;110.25;;;85.15;;
76155;SDS011;64906;51.290;7.348;2023-03-24T10:36:58;109.85;;;85.47;;
76155;SDS011;64906;51.290;7.348;2023-03-24T10:39:27;115.03;;;85.22;;
76155;SDS011;64906;51.290;7.348;2023-03-24T10:41:54;110.47;;;87.03;;
76155;SDS011;64906;51.290;7.348;2023-03-24T10:44:22;110.80;;;87.47;;
76155;SDS011;64906;51.290;7.348;2023-03-24T10:46:49;111.10;;;85.32;;
76155;SDS011;64906;51.290;7.348;2023-03-24T10:49:18;111.22;;;85.20;;
76155;SDS011;64906;51.290;7.348;2023-03-24T10:51:46;114.85;;;87.85;;
76155;SDS011;64906;51.290;7.348;2023-03-24T10:54:20;110.82;;;86.35;;
76155;SDS011;64906;51.290;7.348;2023-03-24T10:56:48;113.97;;;88.03;;
76155;SDS011;64906;51.290;7.348;2023-03-24T11:02:13;104.97;;;81.38;;
76155;SDS011;64906;51.290;7.348;2023-03-24T11:04:43;110.10;;;85.93;;
76155;SDS011;64906;51.290;7.348;2023-03-24T11:07:17;107.78;;;81.80;;
76155;SDS011;64906;51.290;7.348;2023-03-24T11:09:57;108.00;;;84.50;;
76155;SDS011;64906;51.290;7.348;2023-03-24T11:13:14;106.80;;;83.38;;
76155;SDS011;64906;51.290;7.348;2023-03-24T11:17:52;108.38;;;81.13;;
76155;SDS011;64906;51.290;7.348;2023-03-24T11:20:29;112.30;;;83.28;;
76155;SDS011;64906;51.290;7.348;2023-03-24T11:23:01;109.45;;;81.60;;
76155;SDS011;64906;51.290;7.348;2023-03-24T11:25:28;103.30;;;79.35;;
76155;SDS011;64906;51.290;7.348;2023-03-24T11:27:57;102.82;;;79.60;;
76155;SDS011;64906;51.290;7.348;2023-03-24T11:30:27;100.78;;;79.65;;
76155;SDS011;64906;51.290;7.348;2023-03-24T11:32:57;100.28;;;78.57;;
76155;SDS011;64906;51.290;7.348;2023-03-24T11:35:24;96.20;;;74.40;;
76155;SDS011;64906;51.290;7.348;2023-03-24T11:37:49;99.45;;;76.45;;
76155;SDS011;64906;51.290;7.348;2023-03-24T11:40:17;99.90;;;75.63;;
76155;SDS011;64906;51.290;7.348;2023-03-24T11:45:28;92.68;;;67.55;;
76155;SDS011;64906;51.290;7.348;2023-03-24T11:48:03;98.53;;;74.13;;
76155;SDS011;64906;51.290;7.348;2023-03-24T11:50:38;93.15;;;73.18;;
76155;SDS011;64906;51.290;7.348;2023-03-24T11:53:08;95.82;;;72.90;;
76155;SDS011;64906;51.290;7.348;2023-03-24T11:55:43;96.45;;;74.60;;
76155;SDS011;64906;51.290;7.348;2023-03-24T11:58:33;94.38;;;72.70;;
76155;SDS011;64906;51.290;7.348;2023-03-24T12:09:13;90.65;;;68.53;;
76155;SDS011;64906;51.290;7.348;2023-03-24T12:14:33;87.03;;;68.03;;
76155;SDS011;64906;51.290;7.348;2023-03-24T12:19:56;88.22;;;64.03;;
76155;SDS011;64906;51.290;7.348;2023-03-24T12:38:38;82.18;;;59.97;;
76155;SDS011;64906;51.290;7.348;2023-03-24T12:44:08;83.45;;;66.18;;
76155;SDS011;64906;51.290;7.348;2023-03-24T12:46:43;82.97;;;65.18;;
76155;SDS011;64906;51.290;7.348;2023-03-24T12:52:23;85.43;;;64.13;;
76155;SDS011;64906;51.290;7.348;2023-03-24T12:55:12;82.53;;;64.70;;
76155;SDS011;64906;51.290;7.348;2023-03-24T12:57:50;80.90;;;62.40;;
76155;SDS011;64906;51.290;7.348;2023-03-24T13:00:26;79.03;;;62.08;;
76155;SDS011;64906;51.290;7.348;2023-03-24T13:02:56;79.50;;;61.55;;
76155;SDS011;64906;51.290;7.348;2023-03-24T13:05:26;78.75;;;62.80;;
76155;SDS011;64906;51.290;7.348;2023-03-24T13:08:17;78.35;;;61.17;;
76155;SDS011;64906;51.290;7.348;2023-03-24T13:10:47;78.75;;;62.58;;
76155;SDS011;64906;51.290;7.348;2023-03-24T13:13:22;75.30;;;59.55;;
76155;SDS011;64906;51.290;7.348;2023-03-24T13:18:29;79.05;;;61.65;;
76155;SDS011;64906;51.290;7.348;2023-03-24T13:24:06;77.43;;;59.40;;
76155;SDS011;64906;51.290;7.348;2023-03-24T13:34:46;77.40;;;60.10;;
76155;SDS011;64906;51.290;7.348;2023-03-24T13:37:42;73.47;;;57.42;;
76155;SDS011;64906;51.290;7.348;2023-03-24T13:40:17;72.95;;;57.08;;
76155;SDS011;64906;51.290;7.348;2023-03-24T13:42:59;74.78;;;59.70;;
76155;SDS011;64906;51.290;7.348;2023-03-24T13:50:33;71.57;;;56.53;;
76155;SDS011;64906;51.290;7.348;2023-03-24T13:53:06;71.78;;;56.90;;
76155;SDS011;64906;51.290;7.348;2023-03-24T13:55:38;71.47;;;56.22;;
76155;SDS011;64906;51.290;7.348;2023-03-24T13:58:10;73.32;;;57.58;;
76155;SDS011;64906;51.290;7.348;2023-03-24T14:06:58;68.68;;;54.17;;
76155;SDS011;64906;51.290;7.348;2023-03-24T14:09:55;69.03;;;55.75;;
76155;SDS011;64906;51.290;7.348;2023-03-24T14:12:23;68.80;;;54.13;;
76155;SDS011;64906;51.290;7.348;2023-03-24T14:17:29;68.28;;;52.80;;
76155;SDS011;64906;51.290;7.348;2023-03-24T14:22:39;71.00;;;53.45;;
76155;SDS011;64906;51.290;7.348;2023-03-24T14:27:40;66.15;;;52.10;;
76155;SDS011;64906;51.290;7.348;2023-03-24T14:32:52;68.78;;;52.00;;
76155;SDS011;64906;51.290;7.348;2023-03-24T14:40:40;65.88;;;49.05;;
76155;SDS011;64906;51.290;7.348;2023-03-24T14:45:50;67.55;;;49.63;;
76155;SDS011;64906;51.290;7.348;2023-03-24T14:48:28;65.38;;;50.88;;
76155;SDS011;64906;51.290;7.348;2023-03-24T14:51:06;67.80;;;50.88;;
76155;SDS011;64906;51.290;7.348;2023-03-24T14:56:05;67.13;;;49.90;;
76155;SDS011;64906;51.290;7.348;2023-03-24T14:58:37;63.28;;;46.80;;
76155;SDS011;64906;51.290;7.348;2023-03-24T15:01:08;72.10;;;51.08;;
76155;SDS011;64906;51.290;7.348;2023-03-24T15:06:24;71.25;;;53.28;;
76155;SDS011;64906;51.290;7.348;2023-03-24T15:08:54;72.90;;;54.80;;
76155;SDS011;64906;51.290;7.348;2023-03-24T15:11:30;76.35;;;58.03;;
76155;SDS011;64906;51.290;7.348;2023-03-24T15:13:59;75.40;;;55.85;;
76155;SDS011;64906;51.290;7.348;2023-03-24T15:16:33;77.60;;;57.28;;
76155;SDS011;64906;51.290;7.348;2023-03-24T15:19:08;77.68;;;57.70;;
76155;SDS011;64906;51.290;7.348;2023-03-24T15:21:50;80.53;;;58.97;;
76155;SDS011;64906;51.290;7.348;2023-03-24T15:29:28;85.15;;;59.33;;
76155;SDS011;64906;51.290;7.348;2023-03-24T15:31:53;96.32;;;58.42;;
76155;SDS011;64906;51.290;7.348;2023-03-24T15:34:29;87.00;;;62.03;;
76155;SDS011;64906;51.290;7.348;2023-03-24T15:36:58;79.38;;;54.58;;
76155;SDS011;64906;51.290;7.348;2023-03-24T15:39:37;78.82;;;58.42;;
76155;SDS011;64906;51.290;7.348;2023-03-24T15:42:04;80.82;;;57.28;;
76155;SDS011;64906;51.290;7.348;2023-03-24T15:44:38;83.45;;;58.55;;
76155;SDS011;64906;51.290;7.348;2023-03-24T15:47:11;79.70;;;56.53;;
76155;SDS011;64906;51.290;7.348;2023-03-24T15:50:03;75.43;;;54.50;;
76155;SDS011;64906;51.290;7.348;2023-03-24T15:52:35;76.03;;;54.03;;
76155;SDS011;64906;51.290;7.348;2023-03-24T15:57:50;72.65;;;51.58;;
76155;SDS011;64906;51.290;7.348;2023-03-24T16:00:23;69.70;;;49.70;;
76155;SDS011;64906;51.290;7.348;2023-03-24T16:02:52;71.70;;;50.20;;
76155;SDS011;64906;51.290;7.348;2023-03-24T16:05:21;69.75;;;49.83;;
76155;SDS011;64906;51.290;7.348;2023-03-24T16:08:19;70.68;;;51.40;;
76155;SDS011;64906;51.290;7.348;2023-03-24T16:11:00;67.32;;;45.40;;
76155;SDS011;64906;51.290;7.348;2023-03-24T16:13:31;68.95;;;49.47;;
76155;SDS011;64906;51.290;7.348;2023-03-24T16:18:42;68.85;;;48.90;;
76155;SDS011;64906;51.290;7.348;2023-03-24T16:21:16;68.03;;;46.88;;
76155;SDS011;64906;51.290;7.348;2023-03-24T16:23:44;65.22;;;46.92;;
76155;SDS011;64906;51.290;7.348;2023-03-24T16:28:43;65.57;;;45.78;;
76155;SDS011;64906;51.290;7.348;2023-03-24T16:31:16;67.55;;;45.38;;
76155;SDS011;64906;51.290;7.348;2023-03-24T16:33:47;63.25;;;46.40;;
76155;SDS011;64906;51.290;7.348;2023-03-24T16:36:13;66.43;;;47.70;;
76155;SDS011;64906;51.290;7.348;2023-03-24T16:38:39;62.80;;;45.00;;
76155;SDS011;64906;51.290;7.348;2023-03-24T16:41:05;59.00;;;44.42;;
76155;SDS011;64906;51.290;7.348;2023-03-24T16:43:31;62.13;;;42.33;;
76155;SDS011;64906;51.290;7.348;2023-03-24T16:45:58;61.95;;;45.08;;
76155;SDS011;64906;51.290;7.348;2023-03-24T16:48:23;61.70;;;43.45;;
76155;SDS011;64906;51.290;7.348;2023-03-24T16:50:49;62.05;;;44.72;;
76155;SDS011;64906;51.290;7.348;2023-03-24T16:53:19;62.47;;;44.22;;
76155;SDS011;64906;51.290;7.348;2023-03-24T16:55:45;57.28;;;39.22;;
76155;SDS011;64906;51.290;7.348;2023-03-24T16:58:11;60.70;;;42.67;;
76155;SDS011;64906;51.290;7.348;2023-03-24T17:00:38;60.78;;;43.17;;
76155;SDS011;64906;51.290;7.348;2023-03-24T17:03:04;56.33;;;41.47;;
76155;SDS011;64906;51.290;7.348;2023-03-24T17:08:22;60.72;;;43.85;;
76155;SDS011;64906;51.290;7.348;2023-03-24T17:10:50;55.85;;;40.28;;
76155;SDS011;64906;51.290;7.348;2023-03-24T17:13:23;54.33;;;40.10;;
76155;SDS011;64906;51.290;7.348;2023-03-24T17:15:50;59.08;;;40.92;;
76155;SDS011;64906;51.290;7.348;2023-03-24T17:18:17;58.65;;;42.50;;
76155;SDS011;64906;51.290;7.348;2023-03-24T17:20:43;58.42;;;41.47;;
76155;SDS011;64906;51.290;7.348;2023-03-24T17:23:10;52.80;;;37.03;;
76155;SDS011;64906;51.290;7.348;2023-03-24T17:25:37;56.65;;;39.70;;
76155;SDS011;64906;51.290;7.348;2023-03-24T17:28:05;55.88;;;41.20;;
76155;SDS011;64906;51.290;7.348;2023-03-24T17:30:36;58.45;;;41.38;;